ADDS METAR Data INFO
IDs: Format: Raw Decoded Include TAF

Data at: 1120 UTC 21 Feb 2018

KGPH 201515Z AUTO 03007KT 2SM -VCTSSN BKN009 BKN017 OVC048 00/M01 A2990 RMK AO2 LTG DSNT S
KGPH 201455Z AUTO 35008KT 3SM -SN SCT010 BKN031 OVC060 00/M01 A2997 RMK AO2 LTG DSNT E THRU S
KGPH 201435Z AUTO 33004G14KT 5SM UP BKN008 BKN012 OVC033 M01/M02 A3000 RMK AO2 LTG DSNT NE THRU S
KGPH 201415Z AUTO 36008G18KT 320V020 2 1/2SM RA OVC008 00/M01 A2995 RMK AO2 LTG DSNT ALQS
KGPH 201355Z AUTO 32012G21KT 10SM 00/M01 A2995 RMK AO2 LTG DSNT E SW AND W
KGPH 201315Z AUTO 35008KT 3SM -VCTSRA OVC005 00/00 A2988 RMK AO2 LTG DSNT W AND NW
KGPH 201255Z AUTO 32009KT 4SM BR OVC005 00/00 A2991 RMK AO2 LTG DSNT S AND SW
KGPH 201235Z AUTO 33007KT 4SM BR 00/00 A2987 RMK AO2
KGPH 201215Z AUTO 35004KT 4SM BR OVC004 00/00 A2986 RMK AO2
KGPH 201155Z AUTO 34005KT 3SM BR OVC004 00/00 A2986 RMK AO2
KGPH 201135Z AUTO 34005KT 4SM BR OVC004 00/00 A2985 RMK AO2
KGPH 201115Z AUTO 33005KT 3SM UP OVC004 00/00 A2987 RMK AO2 LTG DSNT E
KGPH 201055Z AUTO 33007KT 3SM BR OVC004 00/00 A2986 RMK AO2 LTG DSNT NE
KGPH 201035Z AUTO 32006KT 3SM BR OVC004 00/00 A2985 RMK AO2 LTG DSNT N AND E
KGPH 201015Z AUTO 33006KT 4SM BR OVC006 00/00 A2985 RMK AO2 LTG DSNT N THRU SE
KGPH 200955Z AUTO 33004KT 5SM BR 00/00 A2982 RMK AO2 LTG DSNT W THRU N
KGPH 200935Z AUTO 31005KT 5SM BR OVC007 00/00 A2983 RMK AO2 LTG DSNT W
KGPH 200915Z AUTO 35004KT 7SM OVC007 00/00 A2981 RMK AO2
KGPH 200855Z AUTO 34004KT 7SM UP OVC007 00/00 A2983 RMK AO2
KGPH 200835Z AUTO 32007KT 7SM BKN005 OVC013 00/00 A2983 RMK AO2
KGPH 200815Z AUTO 33007KT 7SM -DZ OVC005 00/00 A2983 RMK AO2
KGPH 200755Z AUTO 32007KT 3SM -RA OVC005 00/00 A2983 RMK AO2
KGPH 200735Z AUTO 34003KT 10SM OVC005 00/00 A2980 RMK AO2 LTG DSNT NW
KGPH 200715Z AUTO 01004KT 7SM OVC003 00/00 A2979 RMK AO2 LTG DSNT E
KGPH 200655Z AUTO 00000KT 4SM BR OVC003 00/00 A2980 RMK AO2 LTG DSNT E AND S
KGPH 200635Z AUTO 00000KT 3SM UP OVC003 00/00 A2981 RMK AO2 LTG DSNT E THRU W
KGPH 200615Z AUTO 33003KT 2 1/2SM -VCTSRA OVC003 00/00 A2982 RMK AO2 LTG DSNT NE AND S
KGPH 200555Z AUTO 35004KT 2SM -RA 00/00 A2982 RMK AO2 LTG DSNT S AND SW
KGPH 200535Z AUTO 34004KT 2SM -TSRA OVC004 00/00 A2982 RMK AO2 LTG DSNT E AND S
KGPH 200515Z AUTO 00000KT 2 1/2SM BR OVC004 00/00 A2983 RMK AO2 LTG DSNT SE
KGPH 200455Z AUTO 00000KT 3SM BR 00/00 A2983 RMK AO2 LTG DSNT S
KGPH 200435Z AUTO 35004KT 4SM BR OVC005 00/00 A2982 RMK AO2 LTG DSNT S
KGPH 200415Z AUTO 36003KT 5SM BR OVC007 00/00 A2982 RMK AO2 LTG DSNT SE AND S
KGPH 200355Z AUTO 33004KT 5SM BR OVC007 00/00 A2984 RMK AO2 LTG DSNT SE AND S
KGPH 200335Z AUTO 00000KT 7SM OVC007 00/00 A2984 RMK AO2 LTG DSNT S AND SW
KGPH 200315Z AUTO 34003KT 7SM 00/00 A2984 RMK AO2 LTG DSNT SE
KGPH 200255Z AUTO 34004KT 7SM UP BKN009 OVC015 00/00 A2985 RMK AO2 LTG DSNT NE AND S
KGPH 200235Z AUTO 33006KT 10SM SCT007 OVC015 00/00 A2984 RMK AO2
KGPH 200215Z AUTO 34005KT 7SM -DZ SCT009 OVC017 00/00 A2983 RMK AO2 LTG DSNT SE
KGPH 200155Z AUTO 32004KT 10SM 00/00 A2984 RMK AO2
KGPH 200135Z AUTO 32006KT 7SM -RA BKN009 OVC016 00/00 A2984 RMK AO2 LTG DSNT SE
KGPH 200115Z AUTO 32006KT 4SM -SN BKN009 OVC014 01/00 A2984 RMK AO2 LTG DSNT SE
KGPH 200055Z AUTO 32006KT 10SM VCTS 01/00 A2984 RMK AO2 LTG DSNT NE AND S
KGPH 200035Z AUTO 31006KT 7SM OVC007 00/00 A2984 RMK AO2 LTG DSNT SE
KGPH 200015Z AUTO 32006KT 5SM BR OVC007 00/00 A2982 RMK AO2
KGPH 192355Z AUTO 32006KT 7SM OVC007 00/00 A2982 RMK AO2 LTG DSNT NE
KGPH 192335Z AUTO 32008KT 7SM -DZ OVC007 01/00 A2982 RMK AO2